Aérodrome :
LOGIN :

S'inscrire | Disclaimer

   EN    FR    IT 

 










Légende :    VFR   VFR Marginal   IFR   IFR Intensif   IFR Très Intensif
Visi : 
Plafond : 
>= 8 km
>= 3000ft
5 à 8 km
1000 à 3000 ft
1500m à 5 km
500 à 1000 ft
800 à 1500m
200 à 500 ft
< 800m
< 200 ft
Symboles :   Orages  Brouillard  Fortes neiges  Fortes précipitations  Vent > 20 kt
SIGMETs :   Divers  Orages  Givrage  Turbulence  Onde Orograph.  Cendres Volcan.






- Altitude de l'aérodrome : 297 ft
- Code IATA : UIP


LFRQ - Quimper Pluguffan

DERNIER METAR :
  • 241800Z AUTO 25016KT 5000 -DZ BR OVC004 11/10 Q1015 TEMPO 2000 RA

METARs EXPIRÉS :
  • 241730Z AUTO 25016KT 3200 -RA BR OVC004 11/10 Q1016 TEMPO 2000 RA
  • 241700Z AUTO 25016G27KT 220V280 3200 -DZ BR OVC004 11/10 Q1016 TEMPO 2000 RA BECMG 28010KT
  • 241630Z AUTO 25014KT 2200 -DZ BR OVC004 11/10 Q1016 TEMPO RA
  • 241600Z AUTO 25018KT 1900 -DZ BR OVC004 11/10 Q1016 TEMPO RA
  • 241530Z AUTO 25017KT 1900 -DZ BR OVC004 10/10 Q1017 TEMPO RA

TAF TAF LFRQ
Valide du 24 à 18h jusqu'au 25 à 18h UTC


241700Z 2418/2518 25014KT 4000 RA OVC006
TEMPO 2418/2422 2000 RA OVC003
BECMG 2422/2424 9999 NSW SCT014 BKN025
BECMG 2510/2512 27022G38KT
PROB40
TEMPO 2510/2512 4000 -SHRA SCT015TCU



MET'MAP, la Météo Aéronautique d'un coup d'oeil ! - Copyright ORBIFLY Décembre 2007 - Disclaimer

ORBIFLY MET'MAP TEAM :

Programmation & Développement : Alexandra Zaïnal
Sur une idée originale de : Baudouin d'Aumeries
Assistance à la programmation : Marc-Olivier Méhu
Soutien technique & logistique : Manuel Goepfert

Contact : metmap@orbifly.com




SOURCES & CREDITS :

   NOAA